sensor_id;sensor_type;location;lat;lon;timestamp;P1;durP1;ratioP1;P2;durP2;ratioP2
53245;SDS011;39569;51.090;-1.786;2023-02-28T00:00:39;7.63;;;3.80;;
53245;SDS011;39569;51.090;-1.786;2023-02-28T00:03:06;7.03;;;2.88;;
53245;SDS011;39569;51.090;-1.786;2023-02-28T00:05:33;5.50;;;4.28;;
53245;SDS011;39569;51.090;-1.786;2023-02-28T00:07:59;7.40;;;4.55;;
53245;SDS011;39569;51.090;-1.786;2023-02-28T00:10:27;6.07;;;4.50;;
53245;SDS011;39569;51.090;-1.786;2023-02-28T00:13:02;6.70;;;3.83;;
53245;SDS011;39569;51.090;-1.786;2023-02-28T00:15:30;17.40;;;4.25;;
53245;SDS011;39569;51.090;-1.786;2023-02-28T00:17:57;9.43;;;4.53;;
53245;SDS011;39569;51.090;-1.786;2023-02-28T00:20:24;6.68;;;4.05;;
53245;SDS011;39569;51.090;-1.786;2023-02-28T00:22:52;5.05;;;3.35;;
53245;SDS011;39569;51.090;-1.786;2023-02-28T00:25:19;5.20;;;3.65;;
53245;SDS011;39569;51.090;-1.786;2023-02-28T00:27:48;5.70;;;2.97;;
53245;SDS011;39569;51.090;-1.786;2023-02-28T00:32:45;7.93;;;4.47;;
53245;SDS011;39569;51.090;-1.786;2023-02-28T00:35:12;5.38;;;3.45;;
53245;SDS011;39569;51.090;-1.786;2023-02-28T00:37:40;12.95;;;3.92;;
53245;SDS011;39569;51.090;-1.786;2023-02-28T00:40:07;16.15;;;3.08;;
53245;SDS011;39569;51.090;-1.786;2023-02-28T00:42:36;8.38;;;2.65;;
53245;SDS011;39569;51.090;-1.786;2023-02-28T00:45:03;20.13;;;4.53;;
53245;SDS011;39569;51.090;-1.786;2023-02-28T00:47:32;12.52;;;5.30;;
53245;SDS011;39569;51.090;-1.786;2023-02-28T00:49:59;5.72;;;2.78;;
53245;SDS011;39569;51.090;-1.786;2023-02-28T00:52:26;9.55;;;4.30;;
53245;SDS011;39569;51.090;-1.786;2023-02-28T00:54:53;10.63;;;3.03;;
53245;SDS011;39569;51.090;-1.786;2023-02-28T00:57:20;11.98;;;3.47;;
53245;SDS011;39569;51.090;-1.786;2023-02-28T00:59:47;12.95;;;3.85;;
53245;SDS011;39569;51.090;-1.786;2023-02-28T01:02:14;7.45;;;3.83;;
53245;SDS011;39569;51.090;-1.786;2023-02-28T01:04:42;14.05;;;6.07;;
53245;SDS011;39569;51.090;-1.786;2023-02-28T01:07:09;7.72;;;3.35;;
53245;SDS011;39569;51.090;-1.786;2023-02-28T01:09:35;2.95;;;1.80;;
53245;SDS011;39569;51.090;-1.786;2023-02-28T01:12:03;6.53;;;4.85;;
53245;SDS011;39569;51.090;-1.786;2023-02-28T01:14:30;4.22;;;2.85;;
53245;SDS011;39569;51.090;-1.786;2023-02-28T01:16:56;25.05;;;6.75;;
53245;SDS011;39569;51.090;-1.786;2023-02-28T01:19:23;7.25;;;3.05;;
53245;SDS011;39569;51.090;-1.786;2023-02-28T01:21:51;8.95;;;4.18;;
53245;SDS011;39569;51.090;-1.786;2023-02-28T01:24:18;7.45;;;4.78;;
53245;SDS011;39569;51.090;-1.786;2023-02-28T01:26:45;11.45;;;3.25;;
53245;SDS011;39569;51.090;-1.786;2023-02-28T01:29:12;4.00;;;3.20;;
53245;SDS011;39569;51.090;-1.786;2023-02-28T01:31:39;8.80;;;3.83;;
53245;SDS011;39569;51.090;-1.786;2023-02-28T01:34:06;4.65;;;2.92;;
53245;SDS011;39569;51.090;-1.786;2023-02-28T01:36:32;10.02;;;5.00;;
53245;SDS011;39569;51.090;-1.786;2023-02-28T01:39:00;12.32;;;4.70;;
53245;SDS011;39569;51.090;-1.786;2023-02-28T01:41:28;3.50;;;3.00;;
53245;SDS011;39569;51.090;-1.786;2023-02-28T01:43:58;3.45;;;3.10;;
53245;SDS011;39569;51.090;-1.786;2023-02-28T01:46:29;5.55;;;5.03;;
53245;SDS011;39569;51.090;-1.786;2023-02-28T01:48:58;3.33;;;3.03;;
53245;SDS011;39569;51.090;-1.786;2023-02-28T01:51:30;4.63;;;3.28;;
53245;SDS011;39569;51.090;-1.786;2023-02-28T01:54:05;12.57;;;3.65;;
53245;SDS011;39569;51.090;-1.786;2023-02-28T01:56:39;5.65;;;4.57;;
53245;SDS011;39569;51.090;-1.786;2023-02-28T01:59:10;3.80;;;2.85;;
53245;SDS011;39569;51.090;-1.786;2023-02-28T02:01:40;3.60;;;3.15;;
53245;SDS011;39569;51.090;-1.786;2023-02-28T02:04:07;10.57;;;4.97;;
53245;SDS011;39569;51.090;-1.786;2023-02-28T02:06:34;7.00;;;6.10;;
53245;SDS011;39569;51.090;-1.786;2023-02-28T02:09:06;16.70;;;3.90;;
53245;SDS011;39569;51.090;-1.786;2023-02-28T02:11:33;4.60;;;3.85;;
53245;SDS011;39569;51.090;-1.786;2023-02-28T02:14:13;25.05;;;8.43;;
53245;SDS011;39569;51.090;-1.786;2023-02-28T02:16:59;6.88;;;3.60;;
53245;SDS011;39569;51.090;-1.786;2023-02-28T02:19:40;3.72;;;3.42;;
53245;SDS011;39569;51.090;-1.786;2023-02-28T02:22:30;11.88;;;7.03;;
53245;SDS011;39569;51.090;-1.786;2023-02-28T02:25:22;4.13;;;3.83;;
53245;SDS011;39569;51.090;-1.786;2023-02-28T02:28:00;4.78;;;4.18;;
53245;SDS011;39569;51.090;-1.786;2023-02-28T02:31:04;5.10;;;4.60;;
53245;SDS011;39569;51.090;-1.786;2023-02-28T02:36:50;27.05;;;5.95;;
53245;SDS011;39569;51.090;-1.786;2023-02-28T02:39:27;8.18;;;5.38;;
53245;SDS011;39569;51.090;-1.786;2023-02-28T02:42:03;17.98;;;4.80;;
53245;SDS011;39569;51.090;-1.786;2023-02-28T02:44:36;6.22;;;5.57;;
53245;SDS011;39569;51.090;-1.786;2023-02-28T02:47:10;14.15;;;6.20;;
53245;SDS011;39569;51.090;-1.786;2023-02-28T02:49:42;9.05;;;5.88;;
53245;SDS011;39569;51.090;-1.786;2023-02-28T02:52:13;6.05;;;4.47;;
53245;SDS011;39569;51.090;-1.786;2023-02-28T02:54:43;5.07;;;4.43;;
53245;SDS011;39569;51.090;-1.786;2023-02-28T02:57:14;7.45;;;4.70;;
53245;SDS011;39569;51.090;-1.786;2023-02-28T02:59:49;11.55;;;5.72;;
53245;SDS011;39569;51.090;-1.786;2023-02-28T03:02:17;15.20;;;5.68;;
53245;SDS011;39569;51.090;-1.786;2023-02-28T03:04:50;18.63;;;6.13;;
53245;SDS011;39569;51.090;-1.786;2023-02-28T03:07:19;13.55;;;6.75;;
53245;SDS011;39569;51.090;-1.786;2023-02-28T03:09:50;5.85;;;4.25;;
53245;SDS011;39569;51.090;-1.786;2023-02-28T03:12:18;13.48;;;4.18;;
53245;SDS011;39569;51.090;-1.786;2023-02-28T03:14:52;7.20;;;5.18;;
53245;SDS011;39569;51.090;-1.786;2023-02-28T03:17:32;20.98;;;5.32;;
53245;SDS011;39569;51.090;-1.786;2023-02-28T03:20:15;19.88;;;7.93;;
53245;SDS011;39569;51.090;-1.786;2023-02-28T03:22:57;23.55;;;5.45;;
53245;SDS011;39569;51.090;-1.786;2023-02-28T03:25:36;23.33;;;9.52;;
53245;SDS011;39569;51.090;-1.786;2023-02-28T03:30:44;13.77;;;7.43;;
53245;SDS011;39569;51.090;-1.786;2023-02-28T03:33:17;28.48;;;9.77;;
53245;SDS011;39569;51.090;-1.786;2023-02-28T03:35:50;6.85;;;6.13;;
53245;SDS011;39569;51.090;-1.786;2023-02-28T03:38:22;23.05;;;8.35;;
53245;SDS011;39569;51.090;-1.786;2023-02-28T03:40:55;7.22;;;5.80;;
53245;SDS011;39569;51.090;-1.786;2023-02-28T03:43:28;6.68;;;6.18;;
53245;SDS011;39569;51.090;-1.786;2023-02-28T03:45:59;10.98;;;5.75;;
53245;SDS011;39569;51.090;-1.786;2023-02-28T03:48:32;8.68;;;5.55;;
53245;SDS011;39569;51.090;-1.786;2023-02-28T03:51:04;6.82;;;6.28;;
53245;SDS011;39569;51.090;-1.786;2023-02-28T03:53:37;11.93;;;9.15;;
53245;SDS011;39569;51.090;-1.786;2023-02-28T03:56:09;19.98;;;6.55;;
53245;SDS011;39569;51.090;-1.786;2023-02-28T03:58:41;7.85;;;5.60;;
53245;SDS011;39569;51.090;-1.786;2023-02-28T04:01:15;20.95;;;9.75;;
53245;SDS011;39569;51.090;-1.786;2023-02-28T04:03:46;12.10;;;5.35;;
53245;SDS011;39569;51.090;-1.786;2023-02-28T04:06:15;5.18;;;4.75;;
53245;SDS011;39569;51.090;-1.786;2023-02-28T04:08:45;6.15;;;5.55;;
53245;SDS011;39569;51.090;-1.786;2023-02-28T04:11:16;8.07;;;6.65;;
53245;SDS011;39569;51.090;-1.786;2023-02-28T04:13:48;9.95;;;6.13;;
53245;SDS011;39569;51.090;-1.786;2023-02-28T04:16:15;9.18;;;7.53;;
53245;SDS011;39569;51.090;-1.786;2023-02-28T04:18:42;9.52;;;6.82;;
53245;SDS011;39569;51.090;-1.786;2023-02-28T04:21:09;15.82;;;6.65;;
53245;SDS011;39569;51.090;-1.786;2023-02-28T04:23:38;7.43;;;6.50;;
53245;SDS011;39569;51.090;-1.786;2023-02-28T04:26:05;14.10;;;5.70;;
53245;SDS011;39569;51.090;-1.786;2023-02-28T04:28:33;31.38;;;9.35;;
53245;SDS011;39569;51.090;-1.786;2023-02-28T04:31:01;6.57;;;5.97;;
53245;SDS011;39569;51.090;-1.786;2023-02-28T04:33:29;24.25;;;9.68;;
53245;SDS011;39569;51.090;-1.786;2023-02-28T04:35:58;34.60;;;10.10;;
53245;SDS011;39569;51.090;-1.786;2023-02-28T04:38:26;20.85;;;8.00;;
53245;SDS011;39569;51.090;-1.786;2023-02-28T04:40:56;12.90;;;5.90;;
53245;SDS011;39569;51.090;-1.786;2023-02-28T04:43:23;25.75;;;8.45;;
53245;SDS011;39569;51.090;-1.786;2023-02-28T04:45:50;12.80;;;7.78;;
53245;SDS011;39569;51.090;-1.786;2023-02-28T04:48:16;9.07;;;8.15;;
53245;SDS011;39569;51.090;-1.786;2023-02-28T04:50:43;11.70;;;9.27;;
53245;SDS011;39569;51.090;-1.786;2023-02-28T04:53:10;17.40;;;11.45;;
53245;SDS011;39569;51.090;-1.786;2023-02-28T04:55:37;9.77;;;8.45;;
53245;SDS011;39569;51.090;-1.786;2023-02-28T04:58:07;11.60;;;10.30;;
53245;SDS011;39569;51.090;-1.786;2023-02-28T05:00:33;14.95;;;10.52;;
53245;SDS011;39569;51.090;-1.786;2023-02-28T05:03:00;15.07;;;10.35;;
53245;SDS011;39569;51.090;-1.786;2023-02-28T05:05:27;13.65;;;8.43;;
53245;SDS011;39569;51.090;-1.786;2023-02-28T05:07:54;12.10;;;10.65;;
53245;SDS011;39569;51.090;-1.786;2023-02-28T05:10:21;20.77;;;10.50;;
53245;SDS011;39569;51.090;-1.786;2023-02-28T05:12:48;11.30;;;8.90;;
53245;SDS011;39569;51.090;-1.786;2023-02-28T05:15:16;12.43;;;10.32;;
53245;SDS011;39569;51.090;-1.786;2023-02-28T05:17:43;19.15;;;9.68;;
53245;SDS011;39569;51.090;-1.786;2023-02-28T05:20:10;49.97;;;10.85;;
53245;SDS011;39569;51.090;-1.786;2023-02-28T05:22:38;16.70;;;9.18;;
53245;SDS011;39569;51.090;-1.786;2023-02-28T05:25:05;12.98;;;11.07;;
53245;SDS011;39569;51.090;-1.786;2023-02-28T05:27:33;14.60;;;9.07;;
53245;SDS011;39569;51.090;-1.786;2023-02-28T05:29:59;19.15;;;9.65;;
53245;SDS011;39569;51.090;-1.786;2023-02-28T05:32:29;13.93;;;8.98;;
53245;SDS011;39569;51.090;-1.786;2023-02-28T05:34:56;8.48;;;7.68;;
53245;SDS011;39569;51.090;-1.786;2023-02-28T05:37:24;17.73;;;10.50;;
53245;SDS011;39569;51.090;-1.786;2023-02-28T05:39:51;20.33;;;11.73;;
53245;SDS011;39569;51.090;-1.786;2023-02-28T05:42:18;12.50;;;9.18;;
53245;SDS011;39569;51.090;-1.786;2023-02-28T05:44:45;18.02;;;8.75;;
53245;SDS011;39569;51.090;-1.786;2023-02-28T05:47:12;18.60;;;9.35;;
53245;SDS011;39569;51.090;-1.786;2023-02-28T05:49:42;11.23;;;8.65;;
53245;SDS011;39569;51.090;-1.786;2023-02-28T05:52:08;10.23;;;8.18;;
53245;SDS011;39569;51.090;-1.786;2023-02-28T05:54:35;9.27;;;8.07;;
53245;SDS011;39569;51.090;-1.786;2023-02-28T05:57:02;10.88;;;8.27;;
53245;SDS011;39569;51.090;-1.786;2023-02-28T05:59:29;10.95;;;8.10;;
53245;SDS011;39569;51.090;-1.786;2023-02-28T06:01:56;22.83;;;8.98;;
53245;SDS011;39569;51.090;-1.786;2023-02-28T06:04:22;10.05;;;6.75;;
53245;SDS011;39569;51.090;-1.786;2023-02-28T06:06:50;18.70;;;9.00;;
53245;SDS011;39569;51.090;-1.786;2023-02-28T06:09:18;19.67;;;6.53;;
53245;SDS011;39569;51.090;-1.786;2023-02-28T06:11:45;8.18;;;6.82;;
53245;SDS011;39569;51.090;-1.786;2023-02-28T06:14:13;12.15;;;7.70;;
53245;SDS011;39569;51.090;-1.786;2023-02-28T06:16:41;6.85;;;5.72;;
53245;SDS011;39569;51.090;-1.786;2023-02-28T06:19:08;23.38;;;9.73;;
53245;SDS011;39569;51.090;-1.786;2023-02-28T06:21:36;8.20;;;6.00;;
53245;SDS011;39569;51.090;-1.786;2023-02-28T06:24:04;12.15;;;6.55;;
53245;SDS011;39569;51.090;-1.786;2023-02-28T06:26:32;10.77;;;7.82;;
53245;SDS011;39569;51.090;-1.786;2023-02-28T06:28:58;23.40;;;7.57;;
53245;SDS011;39569;51.090;-1.786;2023-02-28T06:31:26;7.68;;;5.60;;
53245;SDS011;39569;51.090;-1.786;2023-02-28T06:33:54;5.93;;;5.32;;
53245;SDS011;39569;51.090;-1.786;2023-02-28T06:36:21;8.77;;;6.38;;
53245;SDS011;39569;51.090;-1.786;2023-02-28T06:38:48;5.15;;;4.75;;
53245;SDS011;39569;51.090;-1.786;2023-02-28T06:41:21;6.95;;;6.30;;
53245;SDS011;39569;51.090;-1.786;2023-02-28T06:43:48;9.40;;;6.50;;
53245;SDS011;39569;51.090;-1.786;2023-02-28T06:46:15;5.43;;;4.40;;
53245;SDS011;39569;51.090;-1.786;2023-02-28T06:48:42;15.73;;;7.72;;
53245;SDS011;39569;51.090;-1.786;2023-02-28T06:51:11;12.02;;;7.25;;
53245;SDS011;39569;51.090;-1.786;2023-02-28T06:53:39;12.57;;;8.75;;
53245;SDS011;39569;51.090;-1.786;2023-02-28T06:56:07;7.53;;;6.32;;
53245;SDS011;39569;51.090;-1.786;2023-02-28T06:58:36;10.05;;;6.45;;
53245;SDS011;39569;51.090;-1.786;2023-02-28T07:01:04;5.78;;;5.28;;
53245;SDS011;39569;51.090;-1.786;2023-02-28T07:03:31;7.07;;;5.65;;
53245;SDS011;39569;51.090;-1.786;2023-02-28T07:05:58;5.85;;;5.28;;
53245;SDS011;39569;51.090;-1.786;2023-02-28T07:08:26;8.70;;;7.75;;
53245;SDS011;39569;51.090;-1.786;2023-02-28T07:10:53;5.85;;;5.25;;
53245;SDS011;39569;51.090;-1.786;2023-02-28T07:13:21;9.25;;;6.68;;
53245;SDS011;39569;51.090;-1.786;2023-02-28T07:15:59;9.10;;;7.30;;
53245;SDS011;39569;51.090;-1.786;2023-02-28T07:18:28;8.77;;;6.03;;
53245;SDS011;39569;51.090;-1.786;2023-02-28T07:20:55;6.07;;;5.50;;
53245;SDS011;39569;51.090;-1.786;2023-02-28T07:23:22;5.95;;;5.28;;
53245;SDS011;39569;51.090;-1.786;2023-02-28T07:25:49;8.00;;;6.60;;
53245;SDS011;39569;51.090;-1.786;2023-02-28T07:28:17;7.93;;;6.72;;
53245;SDS011;39569;51.090;-1.786;2023-02-28T07:30:43;6.65;;;6.07;;
53245;SDS011;39569;51.090;-1.786;2023-02-28T07:33:12;6.78;;;5.47;;
53245;SDS011;39569;51.090;-1.786;2023-02-28T07:35:38;10.45;;;6.43;;
53245;SDS011;39569;51.090;-1.786;2023-02-28T07:38:05;20.08;;;8.38;;
53245;SDS011;39569;51.090;-1.786;2023-02-28T07:40:33;23.30;;;6.18;;
53245;SDS011;39569;51.090;-1.786;2023-02-28T07:43:01;7.47;;;6.43;;
53245;SDS011;39569;51.090;-1.786;2023-02-28T07:45:29;7.78;;;5.78;;
53245;SDS011;39569;51.090;-1.786;2023-02-28T07:47:59;6.97;;;6.32;;
53245;SDS011;39569;51.090;-1.786;2023-02-28T07:50:28;5.65;;;5.15;;
53245;SDS011;39569;51.090;-1.786;2023-02-28T07:52:56;10.10;;;6.50;;
53245;SDS011;39569;51.090;-1.786;2023-02-28T07:55:23;7.82;;;7.03;;
53245;SDS011;39569;51.090;-1.786;2023-02-28T07:57:49;5.50;;;4.72;;
53245;SDS011;39569;51.090;-1.786;2023-02-28T08:00:16;5.28;;;4.90;;
53245;SDS011;39569;51.090;-1.786;2023-02-28T08:02:43;6.18;;;4.93;;
53245;SDS011;39569;51.090;-1.786;2023-02-28T08:05:10;11.88;;;5.57;;
53245;SDS011;39569;51.090;-1.786;2023-02-28T08:07:38;5.55;;;5.05;;
53245;SDS011;39569;51.090;-1.786;2023-02-28T08:10:06;12.98;;;6.72;;
53245;SDS011;39569;51.090;-1.786;2023-02-28T08:12:35;7.15;;;6.43;;
53245;SDS011;39569;51.090;-1.786;2023-02-28T08:15:02;12.60;;;8.88;;
53245;SDS011;39569;51.090;-1.786;2023-02-28T08:17:29;17.48;;;5.78;;
53245;SDS011;39569;51.090;-1.786;2023-02-28T08:19:56;6.88;;;6.28;;
53245;SDS011;39569;51.090;-1.786;2023-02-28T08:22:22;9.93;;;7.07;;
53245;SDS011;39569;51.090;-1.786;2023-02-28T08:24:51;9.25;;;6.30;;
53245;SDS011;39569;51.090;-1.786;2023-02-28T08:27:17;5.28;;;4.82;;
53245;SDS011;39569;51.090;-1.786;2023-02-28T08:29:44;6.15;;;5.55;;
53245;SDS011;39569;51.090;-1.786;2023-02-28T08:32:11;9.00;;;7.50;;
53245;SDS011;39569;51.090;-1.786;2023-02-28T08:34:38;7.75;;;6.45;;
53245;SDS011;39569;51.090;-1.786;2023-02-28T08:37:05;6.75;;;5.65;;
53245;SDS011;39569;51.090;-1.786;2023-02-28T08:39:33;13.20;;;6.03;;
53245;SDS011;39569;51.090;-1.786;2023-02-28T08:42:02;7.15;;;6.10;;
53245;SDS011;39569;51.090;-1.786;2023-02-28T08:44:30;5.72;;;5.22;;
53245;SDS011;39569;51.090;-1.786;2023-02-28T08:46:56;10.90;;;6.60;;
53245;SDS011;39569;51.090;-1.786;2023-02-28T08:49:23;10.60;;;6.55;;
53245;SDS011;39569;51.090;-1.786;2023-02-28T08:51:50;10.50;;;6.47;;
53245;SDS011;39569;51.090;-1.786;2023-02-28T08:54:17;7.18;;;6.50;;
53245;SDS011;39569;51.090;-1.786;2023-02-28T08:56:44;7.65;;;6.95;;
53245;SDS011;39569;51.090;-1.786;2023-02-28T08:59:13;9.50;;;6.95;;
53245;SDS011;39569;51.090;-1.786;2023-02-28T09:01:40;14.70;;;7.38;;
53245;SDS011;39569;51.090;-1.786;2023-02-28T09:04:08;9.48;;;7.25;;
53245;SDS011;39569;51.090;-1.786;2023-02-28T09:06:36;8.30;;;7.10;;
53245;SDS011;39569;51.090;-1.786;2023-02-28T09:09:04;10.60;;;7.55;;
53245;SDS011;39569;51.090;-1.786;2023-02-28T09:11:32;15.85;;;8.38;;
53245;SDS011;39569;51.090;-1.786;2023-02-28T09:14:00;10.73;;;8.40;;
53245;SDS011;39569;51.090;-1.786;2023-02-28T09:16:30;8.25;;;6.13;;
53245;SDS011;39569;51.090;-1.786;2023-02-28T09:19:00;8.27;;;7.53;;
53245;SDS011;39569;51.090;-1.786;2023-02-28T09:21:27;7.43;;;6.68;;
53245;SDS011;39569;51.090;-1.786;2023-02-28T09:23:54;6.68;;;5.72;;
53245;SDS011;39569;51.090;-1.786;2023-02-28T09:26:21;13.13;;;12.13;;
53245;SDS011;39569;51.090;-1.786;2023-02-28T09:28:49;13.45;;;11.32;;
53245;SDS011;39569;51.090;-1.786;2023-02-28T09:31:17;10.70;;;9.90;;
53245;SDS011;39569;51.090;-1.786;2023-02-28T09:33:48;11.30;;;10.23;;
53245;SDS011;39569;51.090;-1.786;2023-02-28T09:36:15;11.55;;;10.65;;
53245;SDS011;39569;51.090;-1.786;2023-02-28T09:38:42;13.15;;;10.32;;
53245;SDS011;39569;51.090;-1.786;2023-02-28T09:41:11;11.23;;;10.05;;
53245;SDS011;39569;51.090;-1.786;2023-02-28T09:43:41;10.40;;;9.48;;
53245;SDS011;39569;51.090;-1.786;2023-02-28T09:46:14;7.32;;;6.72;;
53245;SDS011;39569;51.090;-1.786;2023-02-28T09:48:53;8.20;;;7.50;;
53245;SDS011;39569;51.090;-1.786;2023-02-28T09:51:30;7.35;;;6.75;;
53245;SDS011;39569;51.090;-1.786;2023-02-28T09:54:04;5.00;;;4.60;;
53245;SDS011;39569;51.090;-1.786;2023-02-28T09:56:33;1.10;;;1.10;;
53245;SDS011;39569;51.090;-1.786;2023-02-28T09:59:05;2.45;;;2.25;;
53245;SDS011;39569;51.090;-1.786;2023-02-28T10:01:39;1.27;;;1.27;;
53245;SDS011;39569;51.090;-1.786;2023-02-28T10:04:18;1.92;;;1.83;;
53245;SDS011;39569;51.090;-1.786;2023-02-28T10:07:01;2.47;;;2.13;;
53245;SDS011;39569;51.090;-1.786;2023-02-28T10:09:42;1.88;;;1.50;;
53245;SDS011;39569;51.090;-1.786;2023-02-28T10:12:11;2.28;;;2.15;;
53245;SDS011;39569;51.090;-1.786;2023-02-28T10:14:41;1.48;;;1.48;;
53245;SDS011;39569;51.090;-1.786;2023-02-28T10:17:13;1.65;;;1.55;;
53245;SDS011;39569;51.090;-1.786;2023-02-28T10:19:49;1.80;;;1.70;;
53245;SDS011;39569;51.090;-1.786;2023-02-28T10:22:26;1.98;;;1.88;;
53245;SDS011;39569;51.090;-1.786;2023-02-28T10:24:58;1.95;;;1.85;;
53245;SDS011;39569;51.090;-1.786;2023-02-28T10:27:29;4.90;;;4.53;;
53245;SDS011;39569;51.090;-1.786;2023-02-28T10:29:58;1.90;;;1.75;;
53245;SDS011;39569;51.090;-1.786;2023-02-28T10:32:26;2.10;;;1.98;;
53245;SDS011;39569;51.090;-1.786;2023-02-28T10:34:57;2.83;;;1.70;;
53245;SDS011;39569;51.090;-1.786;2023-02-28T10:37:26;13.73;;;1.77;;
53245;SDS011;39569;51.090;-1.786;2023-02-28T10:39:53;1.90;;;1.80;;
53245;SDS011;39569;51.090;-1.786;2023-02-28T10:42:24;2.67;;;2.50;;
53245;SDS011;39569;51.090;-1.786;2023-02-28T10:45:05;5.43;;;2.25;;
53245;SDS011;39569;51.090;-1.786;2023-02-28T10:47:37;1.38;;;1.23;;
53245;SDS011;39569;51.090;-1.786;2023-02-28T10:50:29;1.58;;;1.58;;
53245;SDS011;39569;51.090;-1.786;2023-02-28T10:53:08;4.10;;;3.70;;
53245;SDS011;39569;51.090;-1.786;2023-02-28T10:55:55;4.25;;;3.95;;
53245;SDS011;39569;51.090;-1.786;2023-02-28T10:58:24;4.13;;;3.83;;
53245;SDS011;39569;51.090;-1.786;2023-02-28T11:00:52;1.20;;;1.20;;
53245;SDS011;39569;51.090;-1.786;2023-02-28T11:03:24;1.60;;;1.50;;
53245;SDS011;39569;51.090;-1.786;2023-02-28T11:05:56;2.15;;;1.95;;
53245;SDS011;39569;51.090;-1.786;2023-02-28T11:08:23;2.10;;;1.92;;
53245;SDS011;39569;51.090;-1.786;2023-02-28T11:10:54;2.08;;;1.98;;
53245;SDS011;39569;51.090;-1.786;2023-02-28T11:13:24;3.53;;;1.92;;
53245;SDS011;39569;51.090;-1.786;2023-02-28T11:15:55;2.85;;;2.17;;
53245;SDS011;39569;51.090;-1.786;2023-02-28T11:18:24;0.98;;;0.98;;
53245;SDS011;39569;51.090;-1.786;2023-02-28T11:20:57;1.33;;;1.33;;
53245;SDS011;39569;51.090;-1.786;2023-02-28T11:23:26;1.70;;;1.58;;
53245;SDS011;39569;51.090;-1.786;2023-02-28T11:25:58;2.70;;;2.60;;
53245;SDS011;39569;51.090;-1.786;2023-02-28T11:28:28;0.88;;;0.85;;
53245;SDS011;39569;51.090;-1.786;2023-02-28T11:31:02;2.42;;;1.60;;
53245;SDS011;39569;51.090;-1.786;2023-02-28T11:33:31;0.95;;;0.93;;
53245;SDS011;39569;51.090;-1.786;2023-02-28T11:36:10;3.13;;;2.92;;
53245;SDS011;39569;51.090;-1.786;2023-02-28T11:38:39;19.67;;;10.90;;
53245;SDS011;39569;51.090;-1.786;2023-02-28T11:41:10;8.90;;;3.85;;
53245;SDS011;39569;51.090;-1.786;2023-02-28T11:43:52;4.60;;;4.20;;
53245;SDS011;39569;51.090;-1.786;2023-02-28T11:46:36;13.55;;;10.80;;
53245;SDS011;39569;51.090;-1.786;2023-02-28T11:49:13;16.20;;;12.35;;
53245;SDS011;39569;51.090;-1.786;2023-02-28T11:51:50;2.00;;;1.70;;
53245;SDS011;39569;51.090;-1.786;2023-02-28T11:54:29;1.85;;;1.75;;
53245;SDS011;39569;51.090;-1.786;2023-02-28T11:57:16;1.73;;;1.25;;
53245;SDS011;39569;51.090;-1.786;2023-02-28T12:02:28;7.28;;;3.15;;
53245;SDS011;39569;51.090;-1.786;2023-02-28T12:05:08;3.42;;;2.20;;
53245;SDS011;39569;51.090;-1.786;2023-02-28T12:07:49;2.38;;;2.28;;
53245;SDS011;39569;51.090;-1.786;2023-02-28T12:10:24;2.45;;;2.25;;
53245;SDS011;39569;51.090;-1.786;2023-02-28T12:12:56;3.15;;;2.85;;
53245;SDS011;39569;51.090;-1.786;2023-02-28T12:15:39;2.72;;;2.53;;
53245;SDS011;39569;51.090;-1.786;2023-02-28T12:18:28;3.25;;;2.80;;
53245;SDS011;39569;51.090;-1.786;2023-02-28T12:21:08;2.85;;;2.63;;
53245;SDS011;39569;51.090;-1.786;2023-02-28T12:23:46;7.15;;;6.50;;
53245;SDS011;39569;51.090;-1.786;2023-02-28T12:26:27;3.55;;;3.15;;
53245;SDS011;39569;51.090;-1.786;2023-02-28T12:29:04;2.42;;;2.25;;
53245;SDS011;39569;51.090;-1.786;2023-02-28T12:31:40;7.22;;;6.60;;
53245;SDS011;39569;51.090;-1.786;2023-02-28T12:34:13;6.07;;;5.57;;
53245;SDS011;39569;51.090;-1.786;2023-02-28T12:36:45;6.40;;;5.68;;
53245;SDS011;39569;51.090;-1.786;2023-02-28T12:39:16;6.22;;;5.28;;
53245;SDS011;39569;51.090;-1.786;2023-02-28T12:44:19;8.95;;;6.32;;
53245;SDS011;39569;51.090;-1.786;2023-02-28T12:46:54;2.70;;;2.50;;
53245;SDS011;39569;51.090;-1.786;2023-02-28T12:49:25;2.47;;;2.30;;
53245;SDS011;39569;51.090;-1.786;2023-02-28T12:51:56;19.20;;;3.38;;
53245;SDS011;39569;51.090;-1.786;2023-02-28T12:54:28;8.50;;;7.45;;
53245;SDS011;39569;51.090;-1.786;2023-02-28T12:57:02;6.90;;;3.10;;
53245;SDS011;39569;51.090;-1.786;2023-02-28T13:02:09;3.33;;;2.60;;
53245;SDS011;39569;51.090;-1.786;2023-02-28T13:10:51;4.40;;;3.08;;
53245;SDS011;39569;51.090;-1.786;2023-02-28T13:13:20;3.80;;;2.67;;
53245;SDS011;39569;51.090;-1.786;2023-02-28T13:15:58;4.65;;;3.58;;
53245;SDS011;39569;51.090;-1.786;2023-02-28T13:21:02;4.40;;;4.00;;
53245;SDS011;39569;51.090;-1.786;2023-02-28T13:23:55;4.70;;;3.15;;
53245;SDS011;39569;51.090;-1.786;2023-02-28T13:29:28;15.27;;;3.92;;
53245;SDS011;39569;51.090;-1.786;2023-02-28T13:44:17;10.40;;;9.55;;
53245;SDS011;39569;51.090;-1.786;2023-02-28T13:49:52;3.67;;;3.13;;
53245;SDS011;39569;51.090;-1.786;2023-02-28T13:52:20;5.57;;;4.70;;
53245;SDS011;39569;51.090;-1.786;2023-02-28T13:54:55;11.70;;;10.05;;
53245;SDS011;39569;51.090;-1.786;2023-02-28T13:57:30;17.35;;;11.80;;
53245;SDS011;39569;51.090;-1.786;2023-02-28T14:00:19;5.20;;;4.18;;
53245;SDS011;39569;51.090;-1.786;2023-02-28T14:03:10;4.35;;;3.75;;
53245;SDS011;39569;51.090;-1.786;2023-02-28T14:06:14;12.40;;;11.07;;
53245;SDS011;39569;51.090;-1.786;2023-02-28T14:08:49;11.55;;;10.55;;
53245;SDS011;39569;51.090;-1.786;2023-02-28T14:11:30;4.15;;;3.72;;
53245;SDS011;39569;51.090;-1.786;2023-02-28T14:13:59;16.48;;;5.75;;
53245;SDS011;39569;51.090;-1.786;2023-02-28T14:16:27;11.50;;;10.55;;
53245;SDS011;39569;51.090;-1.786;2023-02-28T14:19:05;14.05;;;12.65;;
53245;SDS011;39569;51.090;-1.786;2023-02-28T14:21:42;5.20;;;4.80;;
53245;SDS011;39569;51.090;-1.786;2023-02-28T14:27:30;13.18;;;10.95;;
53245;SDS011;39569;51.090;-1.786;2023-02-28T14:30:15;12.55;;;11.38;;
53245;SDS011;39569;51.090;-1.786;2023-02-28T14:33:00;6.85;;;4.50;;
53245;SDS011;39569;51.090;-1.786;2023-02-28T14:35:49;12.32;;;11.20;;
53245;SDS011;39569;51.090;-1.786;2023-02-28T14:38:29;11.15;;;10.15;;
53245;SDS011;39569;51.090;-1.786;2023-02-28T14:41:00;10.70;;;9.80;;
53245;SDS011;39569;51.090;-1.786;2023-02-28T14:43:31;10.82;;;9.88;;
53245;SDS011;39569;51.090;-1.786;2023-02-28T14:45:59;9.63;;;8.82;;
53245;SDS011;39569;51.090;-1.786;2023-02-28T14:48:28;5.22;;;3.95;;
53245;SDS011;39569;51.090;-1.786;2023-02-28T14:50:55;10.23;;;9.20;;
53245;SDS011;39569;51.090;-1.786;2023-02-28T14:53:25;9.93;;;9.00;;
53245;SDS011;39569;51.090;-1.786;2023-02-28T14:55:56;8.85;;;7.97;;
53245;SDS011;39569;51.090;-1.786;2023-02-28T14:58:23;8.65;;;7.75;;
53245;SDS011;39569;51.090;-1.786;2023-02-28T15:00:52;8.52;;;7.78;;
53245;SDS011;39569;51.090;-1.786;2023-02-28T15:03:21;8.98;;;8.23;;
53245;SDS011;39569;51.090;-1.786;2023-02-28T15:05:53;8.45;;;7.75;;
53245;SDS011;39569;51.090;-1.786;2023-02-28T15:08:22;10.75;;;7.93;;
53245;SDS011;39569;51.090;-1.786;2023-02-28T15:10:51;2.97;;;2.78;;
53245;SDS011;39569;51.090;-1.786;2023-02-28T15:13:21;3.88;;;3.58;;
53245;SDS011;39569;51.090;-1.786;2023-02-28T15:15:50;3.30;;;3.10;;
53245;SDS011;39569;51.090;-1.786;2023-02-28T15:18:26;5.90;;;3.45;;
53245;SDS011;39569;51.090;-1.786;2023-02-28T15:20:58;10.25;;;9.43;;
53245;SDS011;39569;51.090;-1.786;2023-02-28T15:23:28;9.80;;;8.90;;
53245;SDS011;39569;51.090;-1.786;2023-02-28T15:25:56;14.27;;;8.75;;
53245;SDS011;39569;51.090;-1.786;2023-02-28T15:28:25;10.23;;;8.20;;
53245;SDS011;39569;51.090;-1.786;2023-02-28T15:30:55;9.30;;;8.45;;
53245;SDS011;39569;51.090;-1.786;2023-02-28T15:33:24;4.18;;;3.63;;
53245;SDS011;39569;51.090;-1.786;2023-02-28T15:36:02;10.18;;;9.32;;